Time;durP1;ratioP1;P1;durP2;ratioP2;P2;SDS_P1;SDS_P2;PMS_P1;PMS_P2;Temp;Humidity;BMP_temperature;BMP_pressure;BME280_temperature;BME280_humidity;BME280_pressure;Samples;Min_cycle;Max_cycle;Signal;HPM_P1;HPM_P2
2022/04/28 00:00:06;;;;;;;8.20;6.67;;;;;;;;;;5055703;28;20183;-87
2022/04/28 00:03:11;;;;;;;7.47;6.37;;;;;;;;;;5077516;28;20577;-87
2022/04/28 00:06:15;;;;;;;8.60;6.83;;;;;;;;;;5066372;28;20200;-85
2022/04/28 00:09:20;;;;;;;8.97;6.90;;;;;;;;;;5066345;28;20569;-86
2022/04/28 00:12:24;;;;;;;10.63;7.73;;;;;;;;;;5077621;28;20206;-87
2022/04/28 00:15:29;;;;;;;10.03;7.73;;;;;;;;;;5066076;28;20179;-86
2022/04/28 00:18:33;;;;;;;9.33;7.73;;;;;;;;;;5065592;28;20187;-85
2022/04/28 00:21:38;;;;;;;9.83;7.50;;;;;;;;;;5065304;28;20222;-87
2022/04/28 00:24:42;;;;;;;11.53;7.77;;;;;;;;;;5065889;28;20176;-86
2022/04/28 00:27:47;;;;;;;8.80;7.40;;;;;;;;;;5065115;28;20191;-87
2022/04/28 00:30:51;;;;;;;11.40;7.63;;;;;;;;;;5065007;28;20682;-87
2022/04/28 00:33:55;;;;;;;9.70;7.33;;;;;;;;;;5064905;28;20180;-85
2022/04/28 00:36:59;;;;;;;9.40;7.60;;;;;;;;;;5064029;28;20211;-85
2022/04/28 00:40:05;;;;;;;12.30;8.43;;;;;;;;;;5052841;28;20195;-86
2022/04/28 00:43:18;;;;;;;9.10;7.47;;;;;;;;;;5063384;28;20673;-87
2022/04/28 00:46:23;;;;;;;10.13;7.37;;;;;;;;;;5063829;28;20199;-88
2022/04/28 00:52:50;;;;;;;10.50;8.17;;;;;;;;;;5063524;28;20574;-87
2022/04/28 00:55:55;;;;;;;9.60;7.87;;;;;;;;;;5063541;28;20184;-86
2022/04/28 00:59:02;;;;;;;10.93;8.50;;;;;;;;;;5052308;28;20627;-85
2022/04/28 01:02:09;;;;;;;9.87;7.93;;;;;;;;;;5053054;28;20215;-87
2022/04/28 01:05:14;;;;;;;11.00;8.43;;;;;;;;;;5051568;28;20199;-86
2022/04/28 01:08:18;;;;;;;11.67;9.07;;;;;;;;;;5075120;28;20183;-87
2022/04/28 01:11:23;;;;;;;10.47;8.33;;;;;;;;;;5074277;28;20215;-85
2022/04/28 01:14:34;;;;;;;11.47;8.50;;;;;;;;;;5053406;28;20176;-85
2022/04/28 01:17:41;;;;;;;11.37;8.37;;;;;;;;;;5073976;28;20191;-86
2022/04/28 01:20:45;;;;;;;12.47;7.80;;;;;;;;;;5074688;28;20199;-86
2022/04/28 01:23:51;;;;;;;10.70;7.80;;;;;;;;;;5051582;28;20227;-87
2022/04/28 01:26:56;;;;;;;9.37;7.63;;;;;;;;;;5062819;28;20563;-87
2022/04/28 01:30:13;;;;;;;8.63;7.23;;;;;;;;;;5062792;28;20631;-85
2022/04/28 01:33:19;;;;;;;10.57;7.47;;;;;;;;;;5062815;28;20192;-85
2022/04/28 01:36:23;;;;;;;10.37;7.67;;;;;;;;;;5062987;28;20191;-86
2022/04/28 01:39:28;;;;;;;12.30;7.37;;;;;;;;;;5062469;28;20188;-86
2022/04/28 01:42:34;;;;;;;11.00;7.37;;;;;;;;;;5050414;28;20563;-88
2022/04/28 01:45:38;;;;;;;9.77;7.13;;;;;;;;;;5051363;28;21104;-87
2022/04/28 01:48:53;;;;;;;9.30;7.37;;;;;;;;;;5052453;28;20183;-87
2022/04/28 01:55:59;;;;;;;8.70;7.60;;;;;;;;;;5073408;28;20582;-85
2022/04/28 01:59:22;;;;;;;13.13;8.37;;;;;;;;;;5074523;28;20192;-86
2022/04/28 02:02:49;;;;;;;10.57;8.03;;;;;;;;;;5069540;28;20224;-88
2022/04/28 02:05:53;;;;;;;13.97;8.50;;;;;;;;;;5061528;28;20192;-87
2022/04/28 02:08:57;;;;;;;12.33;8.97;;;;;;;;;;5073355;28;20538;-87
2022/04/28 02:12:02;;;;;;;11.23;9.07;;;;;;;;;;5053341;28;20216;-88
2022/04/28 02:15:20;;;;;;;12.23;8.83;;;;;;;;;;5043907;28;20181;-88
2022/04/28 02:18:45;;;;;;;9.83;7.80;;;;;;;;;;5054365;28;20548;-87
2022/04/28 02:21:49;;;;;;;11.27;8.60;;;;;;;;;;5061545;28;20214;-88
2022/04/28 02:24:53;;;;;;;10.90;8.30;;;;;;;;;;5050285;28;20609;-88
2022/04/28 02:27:57;;;;;;;11.83;8.53;;;;;;;;;;5072826;28;20195;-88
2022/04/28 02:31:02;;;;;;;10.87;8.13;;;;;;;;;;5049602;28;20645;-88
2022/04/28 02:34:06;;;;;;;10.93;8.63;;;;;;;;;;5050505;28;20536;-88
2022/04/28 02:37:16;;;;;;;12.47;8.57;;;;;;;;;;5050362;28;20625;-88
2022/04/28 02:40:21;;;;;;;11.43;8.53;;;;;;;;;;5061591;28;20176;-87
2022/04/28 02:43:25;;;;;;;11.30;8.60;;;;;;;;;;5049871;28;20199;-87
2022/04/28 02:46:42;;;;;;;9.23;7.30;;;;;;;;;;5050752;28;20531;-88
2022/04/28 02:49:47;;;;;;;10.23;7.57;;;;;;;;;;5061465;28;20179;-88
2022/04/28 02:52:51;;;;;;;10.53;8.17;;;;;;;;;;5049822;28;20551;-88
2022/04/28 02:55:55;;;;;;;12.53;9.40;;;;;;;;;;5053703;28;20187;-87
2022/04/28 02:58:59;;;;;;;18.73;10.83;;;;;;;;;;5065469;28;20511;-87
2022/04/28 03:02:03;;;;;;;13.77;9.77;;;;;;;;;;5077001;28;20211;-87
2022/04/28 03:05:08;;;;;;;15.60;10.60;;;;;;;;;;5053907;28;21269;-87
2022/04/28 03:11:35;;;;;;;19.07;11.70;;;;;;;;;;5088000;28;20632;-88
2022/04/28 03:14:39;;;;;;;41.90;22.63;;;;;;;;;;5071524;28;21163;-87
2022/04/28 03:17:44;;;;;;;17.60;12.03;;;;;;;;;;5077273;28;20605;-87
2022/04/28 03:20:48;;;;;;;13.23;10.07;;;;;;;;;;5071535;28;20621;-87
2022/04/28 03:23:52;;;;;;;12.40;9.80;;;;;;;;;;5064298;28;20630;-87
2022/04/28 03:26:56;;;;;;;10.50;8.73;;;;;;;;;;5053691;28;20716;-87
2022/04/28 03:30:01;;;;;;;10.83;8.50;;;;;;;;;;5065353;28;20554;-88
2022/04/28 03:33:10;;;;;;;12.10;8.80;;;;;;;;;;5098528;22;20674;-87
2022/04/28 03:36:56;;;;;;;10.97;7.90;;;;;;;;;;5025202;28;21143;-87
2022/04/28 03:39:41;;;;;;;12.60;8.03;;;;;;;;;;5030356;28;20544;-87
2022/04/28 03:42:46;;;;;;;14.17;8.60;;;;;;;;;;5024296;28;21204;-87
2022/04/28 03:45:51;;;;;;;11.47;8.60;;;;;;;;;;5042675;28;20575;-87
2022/04/28 03:48:58;;;;;;;11.43;8.13;;;;;;;;;;5044914;28;20539;-88
2022/04/28 03:52:03;;;;;;;12.33;8.47;;;;;;;;;;5032692;28;20712;-87
2022/04/28 03:55:09;;;;;;;11.27;8.13;;;;;;;;;;5043457;28;20614;-87
2022/04/28 03:58:13;;;;;;;14.60;9.60;;;;;;;;;;5032603;28;20941;-87
2022/04/28 04:01:17;;;;;;;14.67;9.73;;;;;;;;;;5043651;28;20641;-87
2022/04/28 04:04:46;;;;;;;12.87;8.83;;;;;;;;;;5035585;28;20634;-87
2022/04/28 04:07:51;;;;;;;15.67;9.23;;;;;;;;;;5043470;28;20942;-87
2022/04/28 04:11:06;;;;;;;11.60;9.07;;;;;;;;;;5054983;28;20879;-87
2022/04/28 04:14:11;;;;;;;12.73;9.30;;;;;;;;;;5020688;28;21179;-87
2022/04/28 04:17:15;;;;;;;11.77;9.20;;;;;;;;;;5032025;28;20614;-87
2022/04/28 04:20:20;;;;;;;13.37;9.53;;;;;;;;;;5043943;28;20535;-87
2022/04/28 04:23:25;;;;;;;12.47;9.23;;;;;;;;;;5043129;28;20587;-88
2022/04/28 04:26:30;;;;;;;12.27;8.37;;;;;;;;;;5032440;28;20594;-87
2022/04/28 04:29:38;;;;;;;12.37;9.47;;;;;;;;;;5043620;28;20610;-87
2022/04/28 04:32:52;;;;;;;13.63;9.23;;;;;;;;;;5033052;28;20662;-87
2022/04/28 04:36:06;;;;;;;12.63;9.50;;;;;;;;;;5044101;28;20539;-87
2022/04/28 04:39:10;;;;;;;10.73;8.47;;;;;;;;;;5032250;28;20535;-87
2022/04/28 04:42:18;;;;;;;11.83;8.67;;;;;;;;;;5043137;28;20642;-87
2022/04/28 04:45:23;;;;;;;13.13;9.37;;;;;;;;;;5031199;28;20658;-87
2022/04/28 04:48:46;;;;;;;11.77;9.00;;;;;;;;;;5044015;28;20591;-87
2022/04/28 04:52:08;;;;;;;11.87;8.93;;;;;;;;;;5033913;28;20982;-88
2022/04/28 04:55:44;;;;;;;12.70;9.73;;;;;;;;;;5034677;28;20551;-88
2022/04/28 04:58:49;;;;;;;14.30;9.13;;;;;;;;;;5031469;28;20615;-88
2022/04/28 05:01:53;;;;;;;14.80;10.20;;;;;;;;;;5042562;28;20646;-88
2022/04/28 05:05:16;;;;;;;16.43;11.40;;;;;;;;;;5045128;28;20634;-88
2022/04/28 05:08:52;;;;;;;13.83;10.00;;;;;;;;;;5058152;28;20592;-91
2022/04/28 05:11:56;;;;;;;13.10;9.13;;;;;;;;;;5042153;28;20216;-89
2022/04/28 05:15:13;;;;;;;13.70;9.20;;;;;;;;;;5042445;28;20184;-88
2022/04/28 05:18:29;;;;;;;11.93;8.70;;;;;;;;;;5031197;28;20196;-89
2022/04/28 05:21:46;;;;;;;12.33;9.20;;;;;;;;;;5044392;28;20626;-89
2022/04/28 05:25:09;;;;;;;12.57;9.87;;;;;;;;;;5045070;28;20216;-89
2022/04/28 05:28:39;;;;;;;14.47;9.00;;;;;;;;;;5052965;28;20180;-89
2022/04/28 05:32:10;;;;;;;11.30;8.70;;;;;;;;;;5053098;28;20227;-88
2022/04/28 05:35:38;;;;;;;12.37;9.17;;;;;;;;;;5054042;28;20623;-88
2022/04/28 05:38:43;;;;;;;13.23;9.70;;;;;;;;;;5011218;28;20196;-88
2022/04/28 05:41:47;;;;;;;14.30;10.10;;;;;;;;;;5023192;28;20228;-88
2022/04/28 05:48:16;;;;;;;12.90;9.37;;;;;;;;;;5040389;28;20196;-88
2022/04/28 05:51:21;;;;;;;13.60;10.37;;;;;;;;;;5030358;28;20686;-88
2022/04/28 05:54:27;;;;;;;13.97;11.17;;;;;;;;;;5042123;28;20172;-88
2022/04/28 05:57:31;;;;;;;13.17;9.27;;;;;;;;;;5030088;28;20196;-88
2022/04/28 06:00:35;;;;;;;15.00;10.10;;;;;;;;;;5030060;28;20195;-88
2022/04/28 06:03:41;;;;;;;18.10;11.13;;;;;;;;;;5030538;28;20177;-88
2022/04/28 06:06:53;;;;;;;13.60;10.37;;;;;;;;;;5030696;28;20647;-88
2022/04/28 06:10:06;;;;;;;13.97;10.90;;;;;;;;;;5036867;28;20196;-88
2022/04/28 06:13:10;;;;;;;14.20;10.57;;;;;;;;;;5030368;28;20220;-88
2022/04/28 06:16:35;;;;;;;14.67;9.90;;;;;;;;;;5043870;28;20188;-88
2022/04/28 06:19:53;;;;;;;12.57;10.07;;;;;;;;;;5040800;28;20188;-88
2022/04/28 06:23:17;;;;;;;12.83;9.73;;;;;;;;;;5053356;28;20220;-88
2022/04/28 06:26:24;;;;;;;13.93;10.77;;;;;;;;;;5041336;28;20196;-88
2022/04/28 06:29:28;;;;;;;12.90;10.03;;;;;;;;;;5022934;28;20662;-88
2022/04/28 06:32:37;;;;;;;13.47;10.90;;;;;;;;;;5041055;28;20227;-88
2022/04/28 06:36:05;;;;;;;15.40;11.07;;;;;;;;;;5058643;28;20179;-88
2022/04/28 06:39:13;;;;;;;13.90;10.90;;;;;;;;;;5025658;28;20659;-88
2022/04/28 06:42:21;;;;;;;14.50;11.10;;;;;;;;;;5021538;28;20304;-88
2022/04/28 06:49:29;;;;;;;14.07;10.33;;;;;;;;;;5026103;28;20185;-88
2022/04/28 06:52:37;;;;;;;14.07;10.87;;;;;;;;;;5032567;28;20219;-89
2022/04/28 06:55:48;;;;;;;14.90;10.80;;;;;;;;;;5010417;28;20189;-89
2022/04/28 06:58:53;;;;;;;14.53;12.07;;;;;;;;;;5021206;28;20196;-88
2022/04/28 07:02:05;;;;;;;15.97;11.83;;;;;;;;;;5030503;28;20224;-88
2022/04/28 07:05:11;;;;;;;14.73;11.00;;;;;;;;;;5010177;28;20205;-88
2022/04/28 07:08:16;;;;;;;13.37;10.97;;;;;;;;;;5012911;28;20174;-89
2022/04/28 07:11:25;;;;;;;15.30;11.97;;;;;;;;;;5001606;28;20221;-88
2022/04/28 07:14:35;;;;;;;14.33;11.00;;;;;;;;;;5002793;28;20192;-88
2022/04/28 07:17:51;;;;;;;16.13;12.00;;;;;;;;;;5041775;28;20198;-88
2022/04/28 07:20:56;;;;;;;16.67;11.37;;;;;;;;;;5021209;28;20208;-89
2022/04/28 07:24:02;;;;;;;14.17;11.40;;;;;;;;;;5009761;28;20205;-89
2022/04/28 07:27:06;;;;;;;14.53;11.53;;;;;;;;;;5020512;28;20197;-88
2022/04/28 07:30:10;;;;;;;14.73;10.77;;;;;;;;;;5009782;28;20188;-89
2022/04/28 07:33:17;;;;;;;14.53;9.63;;;;;;;;;;5030869;28;20228;-88
2022/04/28 07:36:40;;;;;;;12.87;9.90;;;;;;;;;;5031970;28;20189;-88
2022/04/28 07:40:03;;;;;;;11.73;9.47;;;;;;;;;;5041343;28;20193;-87
2022/04/28 07:43:15;;;;;;;11.60;9.57;;;;;;;;;;5023859;28;20220;-86
2022/04/28 07:46:19;;;;;;;12.97;9.70;;;;;;;;;;5024918;28;20208;-87
2022/04/28 07:49:24;;;;;;;9.67;8.60;;;;;;;;;;5023650;28;20536;-87
2022/04/28 07:52:29;;;;;;;8.43;7.30;;;;;;;;;;5035839;28;20224;-87
2022/04/28 07:55:33;;;;;;;9.27;6.60;;;;;;;;;;5005372;28;20181;-86
2022/04/28 07:58:40;;;;;;;8.13;6.50;;;;;;;;;;5023420;28;20185;-86
2022/04/28 08:01:59;;;;;;;7.00;5.70;;;;;;;;;;5034903;28;20217;-86
2022/04/28 08:05:06;;;;;;;7.07;5.37;;;;;;;;;;5016015;28;20221;-87
2022/04/28 08:08:10;;;;;;;6.13;4.73;;;;;;;;;;5022051;28;20188;-86
2022/04/28 08:11:14;;;;;;;6.73;5.00;;;;;;;;;;5046356;28;20193;-86
2022/04/28 08:14:18;;;;;;;7.70;5.10;;;;;;;;;;5035381;28;20521;-87
2022/04/28 08:17:23;;;;;;;4.93;4.17;;;;;;;;;;5023985;28;20798;-87
2022/04/28 08:20:28;;;;;;;6.47;4.80;;;;;;;;;;5003010;28;20197;-87
2022/04/28 08:23:33;;;;;;;9.67;4.87;;;;;;;;;;5023404;28;20197;-87
2022/04/28 08:26:37;;;;;;;7.97;4.97;;;;;;;;;;5023308;28;20208;-87
2022/04/28 08:29:41;;;;;;;6.03;5.00;;;;;;;;;;5023598;28;20196;-87
2022/04/28 08:32:54;;;;;;;7.53;5.83;;;;;;;;;;5033076;28;20228;-87
2022/04/28 08:35:58;;;;;;;6.53;4.40;;;;;;;;;;5023620;28;20197;-87
2022/04/28 08:39:04;;;;;;;7.70;5.00;;;;;;;;;;5033799;28;20548;-86
2022/04/28 08:42:12;;;;;;;6.97;4.87;;;;;;;;;;5023520;28;20217;-87
2022/04/28 08:45:39;;;;;;;5.30;4.50;;;;;;;;;;5032388;28;20212;-87
2022/04/28 08:49:07;;;;;;;7.43;5.03;;;;;;;;;;5034376;28;20185;-87
2022/04/28 08:52:16;;;;;;;7.57;5.80;;;;;;;;;;5023185;28;20691;-87
2022/04/28 08:55:21;;;;;;;6.60;5.20;;;;;;;;;;5034259;28;20200;-87
2022/04/28 08:58:26;;;;;;;7.40;4.90;;;;;;;;;;5024360;28;20185;-87
2022/04/28 09:01:31;;;;;;;6.83;5.50;;;;;;;;;;5023067;28;20221;-87
2022/04/28 09:05:05;;;;;;;8.20;5.43;;;;;;;;;;5024641;28;20217;-86
2022/04/28 09:08:42;;;;;;;8.27;5.63;;;;;;;;;;5032110;28;20541;-87
2022/04/28 09:12:11;;;;;;;6.80;5.07;;;;;;;;;;5026417;28;20220;-87
2022/04/28 09:15:34;;;;;;;6.23;4.70;;;;;;;;;;5045472;28;20201;-87
2022/04/28 09:18:49;;;;;;;6.17;5.07;;;;;;;;;;5022673;28;20181;-86
2022/04/28 09:22:00;;;;;;;6.10;5.23;;;;;;;;;;5033780;28;20213;-87
2022/04/28 09:25:10;;;;;;;7.87;5.20;;;;;;;;;;5022658;28;20212;-87
2022/04/28 09:28:15;;;;;;;6.60;5.37;;;;;;;;;;5033835;28;20544;-87
2022/04/28 09:31:23;;;;;;;6.03;5.00;;;;;;;;;;5037757;22;20216;31
2022/04/28 09:35:09;;;;;;;6.23;4.43;;;;;;;;;;5046042;28;20200;-89
2022/04/28 09:38:24;;;;;;;6.47;4.20;;;;;;;;;;5057801;28;20193;-86
2022/04/28 09:45:03;;;;;;;7.60;4.60;;;;;;;;;;5036974;28;20192;-86
2022/04/28 09:48:13;;;;;;;6.80;4.53;;;;;;;;;;5041106;28;20188;-86
2022/04/28 09:51:31;;;;;;;8.73;4.80;;;;;;;;;;5042447;28;20192;-88
2022/04/28 09:54:53;;;;;;;12.43;4.70;;;;;;;;;;5041329;28;20192;-88
2022/04/28 09:57:58;;;;;;;6.23;4.80;;;;;;;;;;5029106;28;20184;-88
2022/04/28 10:01:03;;;;;;;8.60;4.40;;;;;;;;;;5041803;28;20658;-85
2022/04/28 10:04:10;;;;;;;4.87;3.90;;;;;;;;;;5031100;28;20520;-88
2022/04/28 10:07:36;;;;;;;3.77;3.47;;;;;;;;;;5044520;28;20176;-88
2022/04/28 10:10:42;;;;;;;6.00;3.60;;;;;;;;;;5042847;28;20180;-86
2022/04/28 10:13:49;;;;;;;5.43;4.13;;;;;;;;;;5041890;28;20176;-88
2022/04/28 10:16:57;;;;;;;6.07;4.13;;;;;;;;;;5030355;28;20196;-88
2022/04/28 10:20:29;;;;;;;4.80;4.30;;;;;;;;;;5030744;28;20200;-88
2022/04/28 10:34:25;;;;;;;5.33;4.30;;;;;;;;;;5041868;28;20181;-86
2022/04/28 10:38:03;;;;;;;6.00;4.50;;;;;;;;;;5041837;28;20654;-86
2022/04/28 10:41:10;;;;;;;7.33;4.57;;;;;;;;;;5042116;28;20176;-88
2022/04/28 10:44:16;;;;;;;4.40;4.00;;;;;;;;;;5064737;28;20634;-86
2022/04/28 10:47:36;;;;;;;5.00;3.90;;;;;;;;;;5054030;28;20200;-88
2022/04/28 10:50:40;;;;;;;6.60;4.17;;;;;;;;;;5042177;28;20188;-86
2022/04/28 10:54:05;;;;;;;5.37;4.03;;;;;;;;;;5053784;28;20215;-88
2022/04/28 10:57:12;;;;;;;6.53;4.07;;;;;;;;;;5031785;28;20180;-86
2022/04/28 11:00:33;;;;;;;4.57;3.13;;;;;;;;;;5041880;28;20176;-86
2022/04/28 11:03:57;;;;;;;5.00;3.97;;;;;;;;;;5029945;28;20216;-88
2022/04/28 11:07:05;;;;;;;5.53;4.10;;;;;;;;;;5041257;28;20208;-87
2022/04/28 11:10:13;;;;;;;5.23;3.63;;;;;;;;;;5041339;28;20180;-86
2022/04/28 11:13:21;;;;;;;4.87;3.53;;;;;;;;;;5031832;28;20225;-88
2022/04/28 11:16:27;;;;;;;7.97;3.40;;;;;;;;;;5035850;28;20196;-90
2022/04/28 11:19:33;;;;;;;6.27;3.87;;;;;;;;;;5033894;28;20635;-88
2022/04/28 11:22:51;;;;;;;5.13;4.43;;;;;;;;;;5025296;28;20220;-88
2022/04/28 11:25:56;;;;;;;6.90;4.37;;;;;;;;;;5025319;28;20212;-88
2022/04/28 11:29:10;;;;;;;6.03;4.03;;;;;;;;;;5037089;28;20177;-88
2022/04/28 11:32:16;;;;;;;5.87;4.23;;;;;;;;;;5055480;28;20575;-88
2022/04/28 11:35:22;;;;;;;7.67;4.10;;;;;;;;;;5046822;28;20199;-87
2022/04/28 11:38:29;;;;;;;4.90;3.80;;;;;;;;;;5044779;28;20192;-88
2022/04/28 11:41:38;;;;;;;5.47;3.70;;;;;;;;;;5027324;28;20192;-87
2022/04/28 11:44:51;;;;;;;4.43;3.83;;;;;;;;;;5034751;28;20192;-89
2022/04/28 11:47:57;;;;;;;5.60;3.47;;;;;;;;;;5044982;28;20500;-87
2022/04/28 11:51:04;;;;;;;7.40;3.93;;;;;;;;;;5033265;28;20184;-88
2022/04/28 11:54:23;;;;;;;6.63;4.07;;;;;;;;;;5043734;28;20192;-88
2022/04/28 11:57:27;;;;;;;5.00;3.50;;;;;;;;;;5055935;28;20642;-86
2022/04/28 12:00:39;;;;;;;5.63;4.30;;;;;;;;;;5053651;28;20192;-88
2022/04/28 12:03:55;;;;;;;5.60;4.23;;;;;;;;;;5044201;28;20551;-87
2022/04/28 12:06:59;;;;;;;7.00;4.10;;;;;;;;;;5039951;28;20212;-86
2022/04/28 12:20:21;;;;;;;4.50;4.10;;;;;;;;;;5046521;28;20195;-85
2022/04/28 12:23:30;;;;;;;4.57;3.83;;;;;;;;;;5045740;28;20690;-85
2022/04/28 12:26:39;;;;;;;4.50;3.90;;;;;;;;;;5037473;28;20548;-85
2022/04/28 12:29:54;;;;;;;4.80;4.00;;;;;;;;;;5038592;28;20525;-85
2022/04/28 12:32:59;;;;;;;5.43;4.00;;;;;;;;;;5026819;28;20228;-88
2022/04/28 12:36:04;;;;;;;6.47;3.80;;;;;;;;;;5024237;28;20177;-85
2022/04/28 12:39:08;;;;;;;4.47;3.80;;;;;;;;;;5053821;28;20192;-87
2022/04/28 12:42:13;;;;;;;4.87;3.77;;;;;;;;;;5045346;28;20670;-87
2022/04/28 12:45:45;;;;;;;4.93;3.93;;;;;;;;;;5046388;28;20543;-85
2022/04/28 12:48:54;;;;;;;5.50;3.73;;;;;;;;;;5031988;28;20176;-88
2022/04/28 12:51:59;;;;;;;5.70;3.80;;;;;;;;;;5066332;28;20224;-85
2022/04/28 12:55:06;;;;;;;6.90;3.60;;;;;;;;;;5045021;28;20536;-87
2022/04/28 12:58:11;;;;;;;3.30;2.97;;;;;;;;;;5032875;28;20168;-87
2022/04/28 13:01:18;;;;;;;5.43;3.97;;;;;;;;;;5043145;28;20643;-87
2022/04/28 13:04:23;;;;;;;5.33;4.03;;;;;;;;;;5032208;28;20181;-87
2022/04/28 13:07:28;;;;;;;3.63;2.97;;;;;;;;;;5043675;28;20238;-86
2022/04/28 13:10:32;;;;;;;5.10;3.00;;;;;;;;;;5044841;28;20190;-85
2022/04/28 13:13:36;;;;;;;5.17;2.90;;;;;;;;;;5043838;28;20219;-86
2022/04/28 13:16:41;;;;;;;4.67;2.87;;;;;;;;;;5043734;28;20179;-85
2022/04/28 13:19:45;;;;;;;4.77;2.80;;;;;;;;;;5055443;28;20186;-86
2022/04/28 13:22:49;;;;;;;6.57;3.50;;;;;;;;;;5056148;28;20217;-84
2022/04/28 13:25:53;;;;;;;3.77;2.97;;;;;;;;;;5044858;28;20182;-84
2022/04/28 13:28:58;;;;;;;4.43;3.13;;;;;;;;;;5057104;28;20181;-85
2022/04/28 13:32:03;;;;;;;4.20;2.80;;;;;;;;;;5063524;28;20223;-86
2022/04/28 13:35:08;;;;;;;4.13;3.17;;;;;;;;;;5050517;28;20160;-86
2022/04/28 13:38:13;;;;;;;3.00;2.67;;;;;;;;;;5052564;28;20192;-87
2022/04/28 13:41:17;;;;;;;5.23;3.43;;;;;;;;;;5053549;28;20200;-84
2022/04/28 13:44:21;;;;;;;3.50;2.90;;;;;;;;;;5042947;28;20203;-84
2022/04/28 13:47:25;;;;;;;3.90;2.90;;;;;;;;;;5057754;28;20214;-84
2022/04/28 13:50:29;;;;;;;4.03;3.40;;;;;;;;;;5025017;28;20667;-84
2022/04/28 13:53:35;;;;;;;8.63;3.27;;;;;;;;;;5052991;28;20221;-85
2022/04/28 13:56:40;;;;;;;4.00;2.87;;;;;;;;;;5045594;28;20184;-85
2022/04/28 13:59:44;;;;;;;3.77;2.60;;;;;;;;;;5043639;28;20187;-85
2022/04/28 14:02:48;;;;;;;7.60;3.63;;;;;;;;;;5043227;28;20210;-91
2022/04/28 14:05:54;;;;;;;4.93;3.03;;;;;;;;;;5041657;28;20190;-87
2022/04/28 14:08:58;;;;;;;4.77;3.37;;;;;;;;;;5041925;28;20179;-87
2022/04/28 14:12:02;;;;;;;4.20;3.23;;;;;;;;;;5031382;28;20223;-85
2022/04/28 14:15:08;;;;;;;4.87;3.37;;;;;;;;;;5042823;28;20184;-85
2022/04/28 14:18:15;;;;;;;4.87;3.50;;;;;;;;;;5043279;28;20169;-85
2022/04/28 14:21:19;;;;;;;5.27;3.47;;;;;;;;;;5042475;28;20180;-87
2022/04/28 14:24:24;;;;;;;5.07;3.33;;;;;;;;;;5042487;28;20176;-88
2022/04/28 14:27:28;;;;;;;5.10;3.17;;;;;;;;;;5042400;28;20544;-88
2022/04/28 14:30:33;;;;;;;4.33;3.20;;;;;;;;;;5044030;28;20188;-87
2022/04/28 14:33:37;;;;;;;4.00;3.03;;;;;;;;;;5030712;28;20216;-85
2022/04/28 14:36:41;;;;;;;5.63;3.17;;;;;;;;;;5035594;28;20615;-85
2022/04/28 14:39:45;;;;;;;5.37;3.23;;;;;;;;;;5037119;28;20180;-85
2022/04/28 14:42:51;;;;;;;4.83;3.30;;;;;;;;;;5039727;28;20212;-85
2022/04/28 14:45:55;;;;;;;5.40;3.40;;;;;;;;;;5044252;28;20180;-85
2022/04/28 14:52:27;;;;;;;3.93;2.80;;;;;;;;;;5055052;28;20564;-85
2022/04/28 14:55:31;;;;;;;4.63;3.10;;;;;;;;;;5031560;28;20188;-87
2022/04/28 14:58:37;;;;;;;3.70;2.77;;;;;;;;;;5042316;28;20180;-87
2022/04/28 15:01:41;;;;;;;2.93;2.63;;;;;;;;;;5054350;28;20219;-87
2022/04/28 15:04:46;;;;;;;5.30;3.10;;;;;;;;;;5030863;28;20615;-85
2022/04/28 15:07:50;;;;;;;4.00;3.07;;;;;;;;;;5030933;28;20547;-87
2022/04/28 15:10:54;;;;;;;5.57;3.33;;;;;;;;;;5030998;28;20561;-85
2022/04/28 15:13:59;;;;;;;4.23;3.33;;;;;;;;;;5066484;28;20199;-85
2022/04/28 15:17:07;;;;;;;13.00;3.40;;;;;;;;;;5030147;28;20181;-85
2022/04/28 15:20:13;;;;;;;3.60;2.87;;;;;;;;;;5041689;28;20196;-87
2022/04/28 15:23:17;;;;;;;5.10;3.10;;;;;;;;;;5041111;28;20212;-87
2022/04/28 15:26:22;;;;;;;3.93;3.40;;;;;;;;;;5030284;28;20184;-87
2022/04/28 15:29:26;;;;;;;4.70;3.13;;;;;;;;;;5041531;28;20635;-87
2022/04/28 15:32:32;;;;;;;3.60;2.73;;;;;;;;;;5041648;28;20235;-87
2022/04/28 15:35:36;;;;;;;4.13;2.93;;;;;;;;;;5041465;28;20184;-87
2022/04/28 15:38:40;;;;;;;4.67;2.97;;;;;;;;;;5041889;28;20177;-88
2022/04/28 15:41:44;;;;;;;5.43;3.30;;;;;;;;;;5041327;28;20216;-87
2022/04/28 15:44:48;;;;;;;4.43;3.50;;;;;;;;;;5064094;28;20667;-88
2022/04/28 15:47:52;;;;;;;4.90;3.27;;;;;;;;;;5041665;28;20223;-87
2022/04/28 15:50:56;;;;;;;5.40;3.30;;;;;;;;;;5041591;28;20536;-87
2022/04/28 15:54:02;;;;;;;6.00;3.00;;;;;;;;;;5029406;28;20176;-86
2022/04/28 15:57:06;;;;;;;4.03;3.63;;;;;;;;;;5034514;28;20524;-86
2022/04/28 16:00:12;;;;;;;4.67;3.17;;;;;;;;;;5056591;28;20188;-86
2022/04/28 16:03:17;;;;;;;5.33;4.00;;;;;;;;;;5054341;28;20245;-86
2022/04/28 16:06:22;;;;;;;5.43;3.77;;;;;;;;;;5049219;28;20184;-86
2022/04/28 16:09:26;;;;;;;5.00;3.80;;;;;;;;;;5048749;28;20192;-87
2022/04/28 16:12:31;;;;;;;4.60;3.40;;;;;;;;;;5044767;28;20215;-84
2022/04/28 16:15:35;;;;;;;5.27;4.30;;;;;;;;;;5044702;28;20176;-85
2022/04/28 16:18:39;;;;;;;7.53;4.20;;;;;;;;;;5044989;28;20175;-85
2022/04/28 16:21:43;;;;;;;6.03;4.33;;;;;;;;;;5045150;28;20211;-85
2022/04/28 16:24:47;;;;;;;5.77;4.10;;;;;;;;;;5045073;28;20180;-88
2022/04/28 16:27:51;;;;;;;6.97;4.10;;;;;;;;;;5067151;28;20204;-88
2022/04/28 16:30:55;;;;;;;6.37;4.90;;;;;;;;;;5043568;28;20180;-88
2022/04/28 16:34:00;;;;;;;5.60;4.47;;;;;;;;;;5055104;28;20524;-87
2022/04/28 16:37:04;;;;;;;15.63;11.00;;;;;;;;;;5043979;28;20192;-87
2022/04/28 16:40:09;;;;;;;4.77;4.23;;;;;;;;;;5044455;28;20203;-88
2022/04/28 16:43:16;;;;;;;6.77;4.40;;;;;;;;;;5043303;28;20224;-87
2022/04/28 16:46:20;;;;;;;5.57;4.37;;;;;;;;;;5040391;28;20188;-87
2022/04/28 16:49:25;;;;;;;5.13;3.87;;;;;;;;;;5039537;28;20181;-85
2022/04/28 16:52:29;;;;;;;4.57;4.10;;;;;;;;;;5045296;28;20220;-85
2022/04/28 16:55:35;;;;;;;4.27;3.70;;;;;;;;;;5045384;28;20184;-85
2022/04/28 16:58:40;;;;;;;5.37;3.87;;;;;;;;;;5046103;28;20176;-85
2022/04/28 17:01:44;;;;;;;5.20;4.03;;;;;;;;;;5056502;28;20216;-85
2022/04/28 17:04:48;;;;;;;6.67;3.90;;;;;;;;;;5024660;28;20181;-84
2022/04/28 17:07:53;;;;;;;7.00;3.73;;;;;;;;;;5036484;28;20208;-85
2022/04/28 17:10:58;;;;;;;5.77;4.00;;;;;;;;;;5036837;28;20181;-85
2022/04/28 17:14:05;;;;;;;6.60;4.10;;;;;;;;;;5046892;28;20192;-86
2022/04/28 17:17:10;;;;;;;6.90;4.10;;;;;;;;;;5031844;28;20188;-86
2022/04/28 17:20:14;;;;;;;6.53;3.23;;;;;;;;;;5062206;28;20171;-86
2022/04/28 17:23:18;;;;;;;4.67;2.97;;;;;;;;;;5063556;28;20219;-87
2022/04/28 17:26:25;;;;;;;5.63;3.53;;;;;;;;;;5066041;28;20192;-88
2022/04/28 17:29:29;;;;;;;4.80;3.07;;;;;;;;;;5064182;28;20192;-88
2022/04/28 17:32:34;;;;;;;3.57;3.00;;;;;;;;;;5048354;28;20228;-88
2022/04/28 17:35:37;;;;;;;7.70;3.10;;;;;;;;;;5043635;28;20180;-88
2022/04/28 17:38:45;;;;;;;4.60;3.30;;;;;;;;;;5044034;28;20184;-86
2022/04/28 17:42:15;;;;;;;3.13;2.83;;;;;;;;;;5032758;28;20208;-87
2022/04/28 17:45:21;;;;;;;4.33;3.50;;;;;;;;;;5033330;28;20176;-86
2022/04/28 17:48:25;;;;;;;4.40;3.70;;;;;;;;;;5043943;28;20215;-86
2022/04/28 17:51:30;;;;;;;4.13;3.30;;;;;;;;;;5045588;28;20192;-90
2022/04/28 17:54:36;;;;;;;6.03;3.70;;;;;;;;;;5032868;28;20532;-90
2022/04/28 18:01:19;;;;;;;4.10;3.30;;;;;;;;;;5054198;28;20196;-88
2022/04/28 18:04:23;;;;;;;4.57;2.77;;;;;;;;;;5031623;28;20642;-88
2022/04/28 18:07:27;;;;;;;4.93;2.53;;;;;;;;;;5030433;28;20199;-86
2022/04/28 18:10:31;;;;;;;4.97;2.90;;;;;;;;;;5042103;28;20548;-86
2022/04/28 18:13:35;;;;;;;6.17;3.30;;;;;;;;;;5042640;28;20576;-87
2022/04/28 18:16:40;;;;;;;3.33;2.83;;;;;;;;;;5026831;28;20193;-86
2022/04/28 18:19:44;;;;;;;3.13;2.70;;;;;;;;;;5045310;28;20185;-87
2022/04/28 18:22:49;;;;;;;3.10;2.47;;;;;;;;;;5029985;28;20220;-88
2022/04/28 18:25:53;;;;;;;4.87;2.60;;;;;;;;;;5041652;28;20188;-88
2022/04/28 18:28:59;;;;;;;2.90;2.17;;;;;;;;;;5065138;28;20215;-87
2022/04/28 18:32:05;;;;;;;3.33;2.50;;;;;;;;;;5032088;28;20232;-85
2022/04/28 18:35:09;;;;;;;2.77;2.10;;;;;;;;;;5041792;28;20192;-88
2022/04/28 18:45:00;;;;;;;4.00;2.30;;;;;;;;;;5053135;28;20196;-88
2022/04/28 18:48:05;;;;;;;6.67;2.10;;;;;;;;;;5032186;28;20204;-89
2022/04/28 18:51:09;;;;;;;4.87;2.60;;;;;;;;;;5041781;28;20184;-85
2022/04/28 18:54:15;;;;;;;3.63;2.70;;;;;;;;;;5029933;28;20192;-87
2022/04/28 18:57:20;;;;;;;2.87;2.43;;;;;;;;;;5052144;28;20641;-86
2022/04/28 19:00:24;;;;;;;2.77;2.40;;;;;;;;;;5042615;28;20188;-85
2022/04/28 19:03:29;;;;;;;3.17;2.57;;;;;;;;;;5025704;28;20219;-88
2022/04/28 19:06:34;;;;;;;2.87;2.30;;;;;;;;;;5033264;28;20197;-87
2022/04/28 19:09:38;;;;;;;2.63;2.40;;;;;;;;;;5037361;28;20674;-87
2022/04/28 19:12:43;;;;;;;4.07;2.60;;;;;;;;;;5034248;28;20564;-86
2022/04/28 19:15:47;;;;;;;3.57;2.67;;;;;;;;;;5041671;28;20191;-87
2022/04/28 19:18:51;;;;;;;4.00;3.10;;;;;;;;;;5042615;28;20181;-87
2022/04/28 19:21:56;;;;;;;7.43;3.57;;;;;;;;;;5034140;28;20220;-86
2022/04/28 19:25:01;;;;;;;3.90;2.87;;;;;;;;;;5050028;28;20184;-86
2022/04/28 19:28:05;;;;;;;5.77;2.67;;;;;;;;;;5054007;28;20204;-86
2022/04/28 19:31:09;;;;;;;5.03;2.80;;;;;;;;;;5037850;28;20192;-86
2022/04/28 19:34:14;;;;;;;4.73;2.63;;;;;;;;;;5055170;28;20176;-87